Nearby Meteorological Terminal Aviation Routine Weather Reports (METAR)
KAVP - Avoca/Wilkes B., Pennsylvania, USA
Distance from station: NE 13mi, 20km
Updated: Fri, 20-Apr-2018 4:32am EDT
Overcast
Overcast
 Wind from NW
Wind: NW 14 mph , 22 km/h
Temperature: 30°F , -1°C
Wind Chill: 19°F , -7°C
Dew Point: 25°F , -4°C
Humidity: 80%
Barometer: 30.11 inHg , 1019.6 hPa
Clouds: Overcast
Visibility: 10 miles , 16 km
Cloud details: Partly cloudy 2700 ft
Mostly cloudy 4300 ft
Overcast 5000 ft
2018/04/20 08:32 KAVP 200832Z 32012KT 10SM SCT027 BKN043 OVC050 M01/M04 A3011 RMK AO2 T10061039
KMPO - Mt. Pocono, Pennsylvania, USA
Distance from station: ESE 28mi, 45km
Updated: Fri, 20-Apr-2018 3:53am EDT
Light snow, Overcast
Light snow, Overcast
 Wind from NW
Wind: NW 18 mph , 30 km/h, Gust: 29 mph , 46 km/h
Temperature: 27°F , -3°C
Wind Chill: 14°F , -10°C
Dew Point: 23°F , -5°C
Humidity: 86%
Barometer: 30.01 inHg , 1016.3 hPa
Summary: Light Snow
Clouds: Overcast
Visibility: 9 miles , 14 km
Cloud details: Mostly cloudy 1700 ft
Overcast 2400 ft
2018/04/20 07:53 KMPO 200753Z AUTO 31016G25KT 9SM -SN BKN017 OVC024 M03/M05 A3001 RMK AO2 SLP183 P0000 T10281050
 
KABE - Allentown, Pennsylvania, USA
Distance from station: SSE 46mi, 74km
Updated: Fri, 20-Apr-2018 3:51am EDT
Partly cloudy
Partly cloudy
 Wind from NW
Wind: NW 9 mph , 15 km/h
Temperature: 36°F , 2°C
Wind Chill: 29°F , -2°C
Dew Point: 19°F , -7°C
Humidity: 52%
Barometer: 30.11 inHg , 1019.6 hPa
Clouds: Partly cloudy
Visibility: 10 miles , 16 km
Cloud details: Few Clouds 4500 ft
Partly cloudy 5500 ft
2018/04/20 07:51 KABE 200751Z 31008KT 10SM FEW045 SCT055 02/M07 A3011 RMK AO2 SLP199 T00221067
KXLL - Allentown Queen, Pennsylvania, USA
Distance from station: SSE 50mi, 81km
Updated: Fri, 20-Apr-2018 4:15am EDT
Overcast
Overcast
 Wind from WNW
Wind: WNW 8 mph , 13 km/h
Temperature: 36°F , 2°C
Wind Chill: 30°F , -1°C
Dew Point: 23°F , -5°C
Humidity: 60%
Barometer: 30.14 inHg , 1020.7 hPa
Clouds: Overcast
Visibility: 10 miles , 16 km
Cloud details: Overcast 4400 ft
2018/04/20 08:15 KXLL 200815Z AUTO 30007KT 10SM OVC044 02/M05 A3014 RMK AO2
 
KIPT - Williamsport, Pennsylvania, USA
Distance from station: W 52mi, 84km
Updated: Fri, 20-Apr-2018 3:54am EDT
Overcast
Overcast
 Wind from W
Wind: W 9 mph , 15 km/h
Temperature: 34°F , 1°C
Wind Chill: 27°F , -3°C
Dew Point: 25°F , -4°C
Humidity: 70%
Barometer: 30.16 inHg , 1021.3 hPa
Clouds: Overcast
Visibility: 10 miles , 16 km
Cloud details: Few Clouds 5000 ft
Overcast 6000 ft
2018/04/20 07:54 KIPT 200754Z AUTO 28008KT 10SM FEW050 OVC060 01/M04 A3016 RMK AO2 SLP216 T00111044
KSEG - Selinsgrove, Pennsylvania, USA
Distance from station: WSW 57mi, 92km
Updated: Fri, 20-Apr-2018 3:53am EDT
Light snow, Overcast
Light snow, Overcast
 Wind from NNW
Wind: NNW 7 mph , 11 km/h
Temperature: 36°F , 2°C
Wind Chill: 30°F , -1°C
Dew Point: 25°F , -4°C
Humidity: 65%
Barometer: 30.18 inHg , 1022 hPa
Summary: Light Snow
Clouds: Overcast
Visibility: 8 miles , 13 km
Cloud details: Mostly cloudy 3400 ft
Overcast 4400 ft
2018/04/20 07:53 KSEG 200753Z AUTO 33006KT 8SM -SN BKN034 OVC044 02/M04 A3018 RMK AO2 SNB51 SLP221 P0000 T00171039
 
KRDG - Reading, Pennsylvania, USA
Distance from station: S 59mi, 95km
Updated: Fri, 20-Apr-2018 3:54am EDT
Clear
Clear
 Wind from WNW
Wind: WNW 13 mph , 20 km/h
Temperature: 34°F , 1°C
Wind Chill: 25°F , -4°C
Dew Point: 25°F , -4°C
Humidity: 70%
Barometer: 30.14 inHg , 1020.7 hPa
Clouds: Clear
Visibility: 10 miles , 16 km
2018/04/20 07:54 KRDG 200754Z AUTO 30011KT 10SM CLR 01/M04 A3014 RMK AO2 SLP212 T00111044
KUKT - Quakertown Arp, Pennsylvania, USA
Distance from station: SSE 61mi, 98km
Updated: Fri, 20-Apr-2018 4:35am EDT
Mostly cloudy
Mostly cloudy
 Wind from calm
Wind: Calm
Temperature: 34°F , 1°C
Dew Point: 21°F , -6°C
Humidity: 60%
Barometer: 30.12 inHg , 1020 hPa
Clouds: Mostly cloudy
Visibility: 10 miles , 16 km
Cloud details: Mostly cloudy 4300 ft
Mostly cloudy 4900 ft
2018/04/20 08:35 KUKT 200835Z AUTO 00000KT 10SM BKN043 BKN049 01/M06 A3012 RMK A01
 
K12N - Andover, New Jersey, USA
Distance from station: ESE 63mi, 101km
Updated: Fri, 20-Apr-2018 3:54am EDT

 Wind from NNW
Wind: NNW 6 mph , 9 km/h
Temperature: 34°F , 1°C
Wind Chill: 29°F , -2°C
Dew Point: 25°F , -4°C
Humidity: 70%
Barometer: 30.06 inHg , 1017.9 hPa
2018/04/20 07:54 K12N 200754Z AUTO 34005KT 01/M04 A3006 RMK AO1 SLP187 T00061044
KMUI - Muir Aaf/Indiant, Pennsylvania, USA
Distance from station: SSW 65mi, 105km
Updated: Fri, 20-Apr-2018 4:07am EDT
Partly cloudy
Partly cloudy
 Wind from W
Wind: W 8 mph , 13 km/h
Temperature: 36°F , 2°C
Wind Chill: 30°F , -1°C
Dew Point: 25°F , -4°C
Humidity: 65%
Barometer: 30.15 inHg , 1021 hPa
Clouds: Partly cloudy
Visibility: 10 miles , 16 km
Cloud details: Few Clouds 3400 ft
Partly cloudy 4900 ft
Partly cloudy 6000 ft
2018/04/20 08:07 KMUI 200807Z AUTO 28007KT 10SM FEW034 SCT049 SCT060 02/M04 A3015 RMK AO2 UPB0756E07 SLP216 $
 
KFWN - Sussex, New Jersey, USA
Distance from station: E 66mi, 107km
Updated: Fri, 20-Apr-2018 3:53am EDT
Mostly cloudy
Mostly cloudy
 Wind from varies
Wind: varies 3 mph , 6 km/h
Temperature: 34°F , 1°C
Dew Point: 21°F , -6°C
Humidity: 60%
Barometer: 30.05 inHg , 1017.6 hPa
Clouds: Mostly cloudy
Visibility: 10 miles , 16 km
Cloud details: Few Clouds 3700 ft
Mostly cloudy 5000 ft
2018/04/20 07:53 KFWN 200753Z AUTO VRB03KT 10SM FEW037 BKN050 01/M06 A3005 RMK AO2 SLP180 T00111056
KMSV - Monticello, New York, USA
Distance from station: ENE 67mi, 108km
Updated: Fri, 20-Apr-2018 3:56am EDT

 
2018/04/20 07:56 KMSV 200756Z AUTO RMK AO2 SNE05 SLPNO P0000 PWINO FZRANO RVRNO $
 
KBGM - Binghamton, New York, USA
Distance from station: N 69mi, 111km
Updated: Fri, 20-Apr-2018 3:59am EDT
Light snow, Mist, Overcast
Light snow, Mist, Overcast
 Wind from NW
Wind: NW 10 mph , 17 km/h, Gust: 20 mph , 31 km/h
Temperature: 27°F , -3°C
Wind Chill: 18°F , -8°C
Dew Point: 23°F , -5°C
Humidity: 86%
Barometer: 30.05 inHg , 1017.6 hPa
Summary: Light snow, Mist
Clouds: Overcast
Visibility: 5 miles , 8 km
Cloud details: Few Clouds 1500 ft
Partly cloudy 2600 ft
Overcast 3900 ft
2018/04/20 07:59 KBGM 200759Z AUTO 31009G17KT 5SM -SN BR FEW015 SCT026 OVC039 M03/M05 A3005 RMK AO2 P0000 T10331050
KPTW - Pottstown, Pennsylvania, USA
Distance from station: SSE 71mi, 114km
Updated: Fri, 20-Apr-2018 3:54am EDT
Clear
Clear
 Wind from WNW
Wind: WNW 8 mph , 13 km/h
Temperature: 34°F , 1°C
Wind Chill: 27°F , -3°C
Dew Point: 21°F , -6°C
Humidity: 60%
Barometer: 30.14 inHg , 1020.7 hPa
Clouds: Clear
Visibility: 10 miles , 16 km
2018/04/20 07:54 KPTW 200754Z AUTO 30007KT 10SM CLR 01/M06 A3014 RMK AO2 SLP207 T00111056
 
KDYL - Doylestown, Pennsylvania, USA
Distance from station: SE 74mi, 119km
Updated: Fri, 20-Apr-2018 3:54am EDT
Few Clouds
Few Clouds
 Wind from WNW
Wind: WNW 9 mph , 15 km/h
Temperature: 34°F , 1°C
Wind Chill: 27°F , -3°C
Dew Point: 21°F , -6°C
Humidity: 60%
Barometer: 30.10 inHg , 1019.3 hPa
Clouds: Few Clouds
Visibility: 10 miles , 16 km
Cloud details: Few Clouds 4600 ft
2018/04/20 07:54 KDYL 200754Z AUTO 30008KT 10SM FEW046 01/M06 A3010 RMK AO2 SLP198 T00111056
KSMQ - Somerville, New Jersey, USA
Distance from station: ESE 77mi, 124km
Updated: Fri, 20-Apr-2018 3:53am EDT
Mostly cloudy
Mostly cloudy
 Wind from varies
Wind: varies 5 mph , 7 km/h, Gust: 16 mph , 26 km/h
Temperature: 36°F , 2°C
Wind Chill: 32°F , 0°C
Dew Point: 25°F , -4°C
Humidity: 65%
Barometer: 30.08 inHg , 1018.6 hPa
Clouds: Mostly cloudy
Visibility: 10 miles , 16 km
Cloud details: Mostly cloudy 4700 ft
2018/04/20 07:53 KSMQ 200753Z AUTO VRB04G14KT 10SM BKN047 02/M04 A3008 RMK AO2 SLP188 T00221039
 
KLNS - Lancaster, Pennsylvania, USA
Distance from station: SSW 79mi, 127km
Updated: Fri, 20-Apr-2018 3:53am EDT
Few Clouds
Few Clouds
 Wind from NW
Wind: NW 10 mph , 17 km/h
Temperature: 36°F , 2°C
Wind Chill: 29°F , -2°C
Dew Point: 25°F , -4°C
Humidity: 65%
Barometer: 30.16 inHg , 1021.3 hPa
Clouds: Few Clouds
Visibility: 10 miles , 16 km
Cloud details: Few Clouds 4500 ft
2018/04/20 07:53 KLNS 200753Z AUTO 32009KT 10SM FEW045 02/M04 A3016 RMK AO2 SNE0654 SLP214 P0000 T00221044
KELM - Elmira, New York, USA
Distance from station: NW 82mi, 132km
Updated: Fri, 20-Apr-2018 3:53am EDT
Light snow, Overcast
Light snow, Overcast
 Wind from NW
Wind: NW 9 mph , 15 km/h
Temperature: 32°F , 0°C
Wind Chill: 24°F , -4°C
Dew Point: 23°F , -5°C
Humidity: 69%
Barometer: 30.14 inHg , 1020.7 hPa
Summary: Light Snow
Clouds: Overcast
Visibility: 8 miles , 13 km
Cloud details: Mostly cloudy 3500 ft
Overcast 4100 ft
2018/04/20 07:53 KELM 200753Z AUTO 32008KT 8SM -SN BKN035 OVC041 00/M05 A3014 RMK AO2 SNB47 SLP216 P0000 T00001050
 
KLOM - Philly Wings F, Pennsylvania, USA
Distance from station: SSE 82mi, 132km
Updated: Fri, 20-Apr-2018 4:15am EDT
Clear
Clear
 Wind from calm
Wind: Calm
Temperature: 34°F , 1°C
Dew Point: 23°F , -5°C
Humidity: 65%
Barometer: 30.15 inHg , 1021 hPa
Clouds: Clear
Visibility: 10 miles , 16 km
2018/04/20 08:15 KLOM 200815Z AUTO 00000KT 10SM CLR 01/M05 A3015 RMK AO1
KMMU - Morristown Muni, New Jersey, USA
Distance from station: ESE 83mi, 134km
Updated: Fri, 20-Apr-2018 4:15am EDT
Partly cloudy
Partly cloudy
 Wind from NW
Wind: NW 6 mph , 9 km/h
Temperature: 36°F , 2°C
Wind Chill: 31°F , -1°C
Dew Point: 25°F , -4°C
Humidity: 65%
Barometer: 30.08 inHg , 1018.6 hPa
Clouds: Partly cloudy
Visibility: 10 miles , 16 km
Cloud details: Partly cloudy 3800 ft
Partly cloudy 5000 ft
2018/04/20 08:15 KMMU 200815Z AUTO 31005KT 10SM SCT038 SCT050 02/M04 A3008 RMK AO2

Metar display script from Saratoga-Weather.org


Cairn Terrier Rescue
teddybearweather.com 2009-2018